Time;durP1;ratioP1;P1;durP2;ratioP2;P2;SDS_P1;SDS_P2;PMS_P1;PMS_P2;Temp;Humidity;BMP_temperature;BMP_pressure;BME280_temperature;BME280_humidity;BME280_pressure;Samples;Min_cycle;Max_cycle;Signal;HPM_P1;HPM_P2
2022/09/20 00:00:13;;;;;;;2.30;1.47;;;;;;;9.46;100.00;100423.58;5057371;58;1137014;-74
2022/09/20 00:05:21;;;;;;;2.50;1.50;;;;;;;9.44;100.00;100422.84;5043051;58;1137021;-74
2022/09/20 00:10:28;;;;;;;3.70;1.60;;;;;;;9.41;100.00;100428.82;5155133;57;1136958;-73
2022/09/20 00:15:35;;;;;;;2.87;1.85;;;;;;;9.40;100.00;100439.02;5154949;57;1136567;-74
2022/09/20 00:20:51;;;;;;;4.57;1.67;;;;;;;9.51;100.00;100435.09;5146678;57;1137095;-73
2022/09/20 00:26:00;;;;;;;3.57;1.53;;;;;;;9.50;100.00;100437.36;4990425;59;1137117;-73
2022/09/20 00:31:07;;;;;;;3.07;1.37;;;;;;;9.49;100.00;100439.64;4990374;58;1134920;-73
2022/09/20 00:36:15;;;;;;;1.95;1.52;;;;;;;9.55;100.00;100430.43;4955176;59;1138928;-75
2022/09/20 00:41:20;;;;;;;4.35;1.52;;;;;;;9.70;100.00;100433.24;4837646;59;1138967;-74
2022/09/20 00:46:40;;;;;;;5.60;1.55;;;;;;;9.76;100.00;100434.11;4916061;59;1139044;-73
2022/09/20 00:51:59;;;;;;;2.97;1.57;;;;;;;9.70;100.00;100437.20;5043306;56;1138964;-73
2022/09/20 00:57:05;;;;;;;3.40;1.93;;;;;;;9.74;100.00;100437.34;5215086;56;1138981;-73
2022/09/20 01:02:20;;;;;;;6.70;2.10;;;;;;;9.66;100.00;100444.98;5184022;56;1139097;-74
2022/09/20 01:07:27;;;;;;;3.90;1.90;;;;;;;9.67;100.00;100455.91;5215081;56;1139144;-73
2022/09/20 01:12:35;;;;;;;4.13;1.70;;;;;;;9.61;100.00;100458.55;5215000;56;1139189;-73
2022/09/20 01:17:45;;;;;;;6.47;2.10;;;;;;;9.58;100.00;100456.61;5197630;56;1139072;-74
2022/09/20 01:23:10;;;;;;;2.57;1.90;;;;;;;9.56;100.00;100462.00;5129259;57;1138951;-73
2022/09/20 01:28:16;;;;;;;2.63;1.80;;;;;;;9.52;100.00;100467.14;5129302;57;1139088;-73
2022/09/20 01:33:38;;;;;;;2.00;1.67;;;;;;;9.53;100.00;100463.06;5129158;57;1139075;-74
2022/09/20 01:38:54;;;;;;;4.20;1.73;;;;;;;9.49;100.00;100462.08;5144235;56;1139012;-73
2022/09/20 01:44:23;;;;;;;2.83;2.00;;;;;;;9.36;100.00;100464.78;5130347;56;1139236;-74
2022/09/20 01:49:56;;;;;;;6.43;2.13;;;;;;;9.28;100.00;100461.03;5214964;56;1139046;-73
2022/09/20 01:55:29;;;;;;;4.30;2.22;;;;;;;9.24;100.00;100463.05;5212341;56;1136970;-73
2022/09/20 02:01:14;;;;;;;3.20;1.60;;;;;;;9.23;100.00;100453.92;5217287;56;1136953;-73
2022/09/20 02:07:02;;;;;;;4.53;1.73;;;;;;;9.16;100.00;100454.86;4985627;58;1136993;-73
2022/09/20 02:12:24;;;;;;;2.10;1.60;;;;;;;9.13;100.00;100452.44;4912956;60;1139198;-73
2022/09/20 02:18:05;;;;;;;4.43;1.70;;;;;;;9.10;100.00;100455.30;4978383;58;1139155;-73
2022/09/20 02:23:21;;;;;;;5.17;1.87;;;;;;;9.06;100.00;100453.82;4953936;58;1139194;-73
2022/09/20 02:28:55;;;;;;;2.93;2.27;;;;;;;9.03;100.00;100452.72;4986035;58;1139445;-73
2022/09/20 02:34:28;;;;;;;;;;;;;;;9.04;100.00;100461.00;4993454;57;1139264;-73
2022/09/20 02:40:00;;;;;;;5.37;2.93;;;;;;;9.04;100.00;100459.20;5244861;55;976363;-73
2022/09/20 02:45:13;;;;;;;5.07;3.43;;;;;;;8.99;100.00;100460.52;5222350;56;1135112;-73
2022/09/20 02:50:41;;;;;;;4.97;2.87;;;;;;;9.00;100.00;100464.36;5200643;55;1137185;-73
2022/09/20 02:56:29;;;;;;;5.67;2.52;;;;;;;9.06;100.00;100480.20;5311059;55;1136866;-73
2022/09/20 03:02:00;;;;;;;3.50;3.20;;;;;;;9.07;100.00;100483.21;5311122;55;1135041;-73
2022/09/20 03:07:19;;;;;;;3.90;3.13;;;;;;;9.03;100.00;100493.13;5311077;55;1139200;-73
2022/09/20 03:12:38;;;;;;;2.83;2.63;;;;;;;9.04;100.00;100489.55;5220898;55;1139083;-74
2022/09/20 03:17:58;;;;;;;6.00;3.30;;;;;;;9.07;100.00;100490.65;5212094;56;1138983;-74
2022/09/20 03:23:39;;;;;;;7.23;4.00;;;;;;;9.09;100.00;100493.19;5221679;56;1138934;-73
2022/09/20 03:29:10;;;;;;;4.67;3.83;;;;;;;9.12;100.00;100495.13;5238473;55;1139520;-73
2022/09/20 03:34:50;;;;;;;6.70;3.63;;;;;;;9.17;100.00;100500.90;5255942;55;1139193;-74
2022/09/20 03:40:40;;;;;;;5.43;3.17;;;;;;;9.14;100.00;100500.30;5276807;55;1138665;-73
2022/09/20 03:45:52;;;;;;;8.37;3.17;;;;;;;9.11;100.00;100497.40;5205087;56;1137055;-74
2022/09/20 03:51:11;;;;;;;2.90;2.67;;;;;;;9.10;100.00;100497.51;5245181;55;1136904;-72
2022/09/20 03:56:53;;;;;;;4.60;3.33;;;;;;;9.09;100.00;100498.46;5248901;55;1136847;-74
2022/09/20 04:02:37;;;;;;;3.30;3.00;;;;;;;9.03;100.00;100506.80;5263328;55;1139013;-72
2022/09/20 04:08:03;;;;;;;3.90;3.03;;;;;;;8.97;100.00;100511.21;5177250;56;1139299;-73
2022/09/20 04:13:38;;;;;;;5.33;2.90;;;;;;;8.92;100.00;100514.16;5222172;56;1139232;-72
2022/09/20 04:19:19;;;;;;;3.67;2.57;;;;;;;8.92;100.00;100514.16;5226284;55;1139096;-72
2022/09/20 04:24:53;;;;;;;3.73;2.27;;;;;;;8.91;100.00;100518.23;5127010;56;1138908;-72
2022/09/20 04:30:29;;;;;;;3.33;3.03;;;;;;;8.91;100.00;100523.03;5223743;55;1139021;-73
2022/09/20 04:41:43;;;;;;;3.50;3.10;;;;;;;8.88;100.00;100529.83;5272328;55;1136979;-72
2022/09/20 04:47:27;;;;;;;5.73;4.50;;;;;;;8.82;100.00;100526.33;5227774;55;1136905;-72
2022/09/20 04:52:58;;;;;;;4.08;2.50;;;;;;;8.81;100.00;100533.86;5267228;55;1139000;-73
2022/09/20 04:58:40;;;;;;;3.03;2.77;;;;;;;8.78;100.00;100531.44;5310675;55;1139050;-73
2022/09/20 05:04:18;;;;;;;3.17;2.87;;;;;;;8.77;100.00;100536.34;5271658;55;1139006;-73
2022/09/20 05:10:02;;;;;;;5.13;2.83;;;;;;;8.83;100.00;100541.67;5236061;55;1139211;-73
2022/09/20 05:15:43;;;;;;;3.97;3.63;;;;;;;8.87;100.00;100542.64;5233433;55;1139426;-72
2022/09/20 05:20:58;;;;;;;4.47;3.43;;;;;;;8.97;100.00;100560.01;5254808;55;1136713;-73
2022/09/20 05:26:24;;;;;;;8.00;2.83;;;;;;;9.02;100.00;100571.06;5211759;55;1137162;-73
2022/09/20 05:31:52;;;;;;;4.27;3.83;;;;;;;9.04;100.00;100585.84;5254306;55;1136834;-72
2022/09/20 05:37:40;;;;;;;5.40;2.67;;;;;;;9.00;100.00;100590.98;5192730;55;1137165;-73
2022/09/20 05:43:12;;;;;;;4.63;2.50;;;;;;;9.01;100.00;100591.83;5254117;55;1138997;-73
2022/09/20 05:48:31;;;;;;;3.17;2.60;;;;;;;8.96;100.00;100590.81;5258607;55;1138967;-73
2022/09/20 05:54:20;;;;;;;2.50;1.60;;;;;;;9.03;100.00;100589.42;5255739;55;1139092;-73
2022/09/20 06:00:03;;;;;;;3.20;2.57;;;;;;;9.11;100.00;100598.14;5241672;55;1139082;-72
2022/09/20 06:05:46;;;;;;;3.00;2.27;;;;;;;9.14;100.00;100602.73;5233989;55;1139093;-73
2022/09/20 06:11:18;;;;;;;2.47;2.07;;;;;;;9.16;100.00;100612.70;5239103;55;1136922;-72
2022/09/20 06:16:43;;;;;;;6.63;4.70;;;;;;;9.18;100.00;100609.45;5245003;55;1137264;-72
2022/09/20 06:22:00;;;;;;;2.63;2.43;;;;;;;9.22;100.00;100602.17;5234195;55;1136882;-73
2022/09/20 06:27:22;;;;;;;2.87;2.57;;;;;;;9.23;100.00;100609.14;5239330;55;1137436;-72
2022/09/20 06:32:28;;;;;;;2.70;2.20;;;;;;;9.30;100.00;100616.16;5239484;55;1138587;-72
2022/09/20 06:43:29;;;;;;;3.80;2.80;;;;;;;9.36;100.00;100628.44;5236961;55;1139054;-72
2022/09/20 06:48:33;;;;;;;6.13;2.77;;;;;;;9.41;100.00;100630.28;5205819;55;1139253;-73
2022/09/20 06:53:41;;;;;;;2.87;2.57;;;;;;;9.48;100.00;100630.67;5249407;55;1139219;-72
2022/09/20 06:58:47;;;;;;;6.50;2.90;;;;;;;9.47;100.00;100646.98;5254220;55;1139051;-73
2022/09/20 07:03:53;;;;;;;2.63;2.43;;;;;;;9.38;100.00;100652.92;5249111;55;1139076;-73
2022/09/20 07:08:59;;;;;;;2.60;2.27;;;;;;;9.37;100.00;100660.95;5179202;56;1139031;-73
2022/09/20 07:14:06;;;;;;;4.10;3.67;;;;;;;9.37;100.00;100664.91;5222028;55;1139068;-72
2022/09/20 07:19:13;;;;;;;6.87;4.83;;;;;;;9.34;100.00;100675.67;5175836;56;1139009;-73
2022/09/20 07:24:18;;;;;;;8.73;6.83;;;;;;;9.30;100.00;100679.50;5252576;55;1139061;-72
2022/09/20 07:29:26;;;;;;;5.43;3.90;;;;;;;9.32;100.00;100679.74;5249147;55;1139009;-73
2022/09/20 07:34:31;;;;;;;8.50;4.80;;;;;;;9.32;100.00;100679.74;5248981;55;1139249;-73
2022/09/20 07:39:37;;;;;;;4.97;3.60;;;;;;;9.39;100.00;100698.64;5255230;55;1139112;-73
2022/09/20 07:44:42;;;;;;;12.90;5.83;;;;;;;9.44;100.00;100702.66;5251019;55;1139037;-73
2022/09/20 07:49:48;;;;;;;10.03;6.93;;;;;;;9.59;100.00;100706.50;5252970;55;1141089;-72
2022/09/20 07:54:55;;;;;;;8.27;5.80;;;;;;;9.71;100.00;100712.23;5254569;55;1141113;-73
2022/09/20 08:00:00;;;;;;;10.70;4.93;;;;;;;9.88;100.00;100713.20;5243371;55;1139212;-73
2022/09/20 08:05:07;;;;;;;7.00;4.50;;;;;;;10.11;100.00;100707.08;5238070;55;1141111;-72
2022/09/20 08:10:12;;;;;;;9.00;5.50;;;;;;;10.28;100.00;100713.82;5221486;55;1141250;-72
2022/09/20 08:15:18;;;;;;;4.83;3.87;;;;;;;10.55;100.00;100709.61;5243291;55;1141063;-73
2022/09/20 08:20:25;;;;;;;5.13;3.23;;;;;;;10.77;100.00;100706.21;5199876;55;1141143;-73
2022/09/20 08:25:31;;;;;;;4.20;2.80;;;;;;;11.13;100.00;100717.14;5237210;55;1141099;-73
2022/09/20 08:30:37;;;;;;;3.20;2.87;;;;;;;11.28;100.00;100714.63;5238192;55;1141088;-73
2022/09/20 08:35:43;;;;;;;5.50;3.10;;;;;;;11.59;100.00;100706.46;5241003;55;1141133;-73
2022/09/20 08:40:49;;;;;;;2.50;2.30;;;;;;;11.78;100.00;100705.37;5240418;55;1141313;-72
2022/09/20 08:45:57;;;;;;;3.53;1.97;;;;;;;12.01;100.00;100713.31;5246007;55;1141168;-73
2022/09/20 08:51:08;;;;;;;2.37;2.20;;;;;;;12.22;100.00;100712.40;5123711;56;1141060;-73
2022/09/20 08:56:14;;;;;;;3.90;1.83;;;;;;;12.40;100.00;100719.34;5034954;57;1141142;-72
2022/09/20 09:01:26;;;;;;;1.90;1.80;;;;;;;12.57;100.00;100718.80;5080508;57;1139236;-72
2022/09/20 09:06:32;;;;;;;7.53;2.15;;;;;;;12.83;100.00;100717.13;5252793;56;1139025;-72
2022/09/20 09:11:40;;;;;;;2.50;2.27;;;;;;;13.18;100.00;100720.80;5226250;55;1139073;-73
2022/09/20 09:16:46;;;;;;;2.73;2.17;;;;;;;13.45;100.00;100730.39;5173234;56;1139300;-72
2022/09/20 09:21:57;;;;;;;2.10;1.87;;;;;;;13.42;100.00;100725.84;5276552;55;1139030;-72
2022/09/20 09:27:18;;;;;;;3.23;2.93;;;;;;;13.51;100.00;100727.20;5209886;56;1139064;-72
2022/09/20 09:32:31;;;;;;;2.40;2.20;;;;;;;13.60;100.00;100729.06;5246883;55;1139033;-72
2022/09/20 09:37:37;;;;;;;;;;;;;;;13.80;100.00;100731.31;5237589;56;1139045;-72
2022/09/20 09:42:56;;;;;;;1.90;1.80;;;;;;;14.08;100.00;100725.23;5234496;55;976434;-72
2022/09/20 09:48:06;;;;;;;3.40;2.13;;;;;;;14.21;100.00;100730.79;5241054;56;1134770;-72
2022/09/20 09:53:19;;;;;;;1.27;1.27;;;;;;;14.37;100.00;100723.11;5258921;55;1141141;-73
2022/09/20 09:58:55;;;;;;;3.20;1.67;;;;;;;14.57;100.00;100727.52;5248014;55;1141076;-73
2022/09/20 10:04:24;;;;;;;1.20;1.20;;;;;;;14.71;100.00;100723.59;5210333;55;1141356;-73
2022/09/20 10:09:49;;;;;;;1.87;1.20;;;;;;;14.83;100.00;100719.80;5261883;55;1141454;-72
2022/09/20 10:15:06;;;;;;;0.73;0.73;;;;;;;15.15;100.00;100726.13;5255775;55;1141363;-73
2022/09/20 10:20:56;;;;;;;1.07;0.77;;;;;;;15.54;100.00;100724.22;5258896;55;1141107;-73
2022/09/20 10:26:09;;;;;;;1.30;1.20;;;;;;;15.64;97.21;100724.20;5250429;55;1141248;-72
2022/09/20 10:31:49;;;;;;;0.73;0.50;;;;;;;15.31;94.39;100737.03;5258959;55;1139160;-72
2022/09/20 10:37:00;;;;;;;1.47;1.00;;;;;;;15.56;96.39;100720.11;5267743;55;1137346;-72
2022/09/20 10:48:51;;;;;;;1.40;0.97;;;;;;;16.04;94.13;100725.22;5242845;55;1135342;-72
2022/09/20 10:54:28;;;;;;;0.70;0.70;;;;;;;16.00;96.13;100723.34;5302863;55;1139032;-72
2022/09/20 11:00:10;;;;;;;2.47;0.50;;;;;;;15.87;89.82;100726.84;5232984;55;1139063;-72
2022/09/20 11:05:53;;;;;;;1.23;0.83;;;;;;;15.69;91.98;100729.94;5168496;56;1138975;-72
2022/09/20 11:11:20;;;;;;;1.23;1.10;;;;;;;15.46;90.33;100743.59;5143274;57;1138955;-72
2022/09/20 11:16:43;;;;;;;0.43;0.20;;;;;;;14.90;93.66;100753.38;5083858;57;1139376;-72
2022/09/20 11:21:57;;;;;;;0.30;0.23;;;;;;;14.20;92.35;100755.73;5012500;58;1137374;-72
2022/09/20 11:27:32;;;;;;;1.20;0.50;;;;;;;13.76;94.59;100761.80;5019316;57;1137060;-72
2022/09/20 11:32:54;;;;;;;0.30;0.30;;;;;;;13.45;94.56;100768.06;5014281;57;1136436;-73
2022/09/20 11:38:25;;;;;;;0.63;0.53;;;;;;;13.23;95.89;100771.24;5078904;57;1137130;-73
2022/09/20 11:43:32;;;;;;;4.80;1.80;;;;;;;13.17;97.08;100779.72;5064486;57;1139055;-75
2022/09/20 11:48:54;;;;;;;2.53;0.97;;;;;;;13.09;97.26;100771.53;5078532;56;1139033;-72
2022/09/20 11:54:17;;;;;;;1.20;0.50;;;;;;;13.10;97.78;100782.52;5215874;55;1139088;-73
2022/09/20 11:59:39;;;;;;;3.77;1.27;;;;;;;13.08;97.80;100787.11;5232966;55;1139098;-72
2022/09/20 12:04:52;;;;;;;2.70;1.60;;;;;;;13.07;98.86;100788.56;5233235;55;1139144;-73
2022/09/20 12:10:07;;;;;;;2.50;1.33;;;;;;;13.11;98.92;100790.84;5232682;55;1139079;-72
2022/09/20 12:15:38;;;;;;;0.50;0.50;;;;;;;13.17;99.03;100793.00;5202975;55;1139170;-72
2022/09/20 12:20:52;;;;;;;1.07;0.67;;;;;;;13.34;100.00;100795.08;5221778;55;1138971;-74
2022/09/20 12:26:02;;;;;;;;;;;;;;;13.79;100.00;100791.27;5246747;55;1141346;-73
2022/09/20 12:31:28;;;;;;;3.90;0.50;;;;;;;14.14;95.81;100790.36;5209356;56;978463;-73
2022/09/20 12:36:37;;;;;;;0.50;0.50;;;;;;;14.40;95.98;100790.24;5222018;55;1136920;-74
2022/09/20 12:42:01;;;;;;;0.70;0.60;;;;;;;14.67;94.19;100793.57;5242846;55;1139261;-73
2022/09/20 12:47:17;;;;;;;0.33;0.33;;;;;;;15.15;97.38;100790.07;5161230;55;1136969;-73
2022/09/20 12:58:09;;;;;;;0.23;0.20;;;;;;;15.88;89.08;100794.38;5140305;57;1136983;-72
2022/09/20 13:03:33;;;;;;;0.27;0.27;;;;;;;16.11;81.71;100787.16;5140402;57;1136900;-73
2022/09/20 13:08:55;;;;;;;;;;;;;;;16.23;79.77;100798.96;5235157;55;1135328;-73
2022/09/20 13:14:14;;;;;;;1.10;1.07;;;;;;;15.87;81.20;100808.70;5233323;55;976256;-74
2022/09/20 13:19:39;;;;;;;2.00;1.23;;;;;;;15.53;83.71;100807.00;5223630;56;1137029;-73
2022/09/20 13:24:48;;;;;;;1.50;1.40;;;;;;;15.29;84.37;100800.29;5147663;56;1139139;-74
2022/09/20 13:29:54;;;;;;;0.80;0.80;;;;;;;15.10;86.32;100814.50;5069557;57;1139308;-73
2022/09/20 13:35:13;;;;;;;3.23;0.70;;;;;;;15.04;84.17;100821.70;5079549;57;1139255;-73
2022/09/20 13:40:52;;;;;;;1.37;0.90;;;;;;;15.08;86.48;100829.77;5008080;58;1139004;-73
2022/09/20 13:45:55;;;;;;;;;;;;;;;15.13;87.07;100826.17;5029308;58;1139053;-73
2022/09/20 13:51:01;;;;;;;13.53;4.47;;;;;;;15.28;89.92;100815.92;5017403;58;976422;-73
2022/09/20 13:56:25;;;;;;;9.50;1.60;;;;;;;15.48;89.31;100819.41;5079548;57;1139143;-73
2022/09/20 14:01:35;;;;;;;24.13;21.60;;;;;;;15.64;89.47;100816.19;5091033;56;1139022;-73
2022/09/20 14:06:43;;;;;;;58.33;53.60;;;;;;;15.97;89.32;100813.00;5219215;56;1143215;-73
2022/09/20 14:11:50;;;;;;;10.67;9.87;;;;;;;16.25;87.68;100802.33;5218800;56;1143231;-73
2022/09/20 14:16:58;;;;;;;0.70;0.70;;;;;;;16.54;79.30;100803.00;5219006;56;1140982;-73
2022/09/20 14:22:08;;;;;;;0.70;0.70;;;;;;;16.72;78.00;100805.72;5219737;56;1139005;-73
2022/09/20 14:27:21;;;;;;;6.10;5.60;;;;;;;16.88;82.20;100804.05;5181598;55;1139299;-73
2022/09/20 14:32:32;;;;;;;9.67;7.60;;;;;;;17.02;81.98;100803.17;5157243;56;1136919;-74
2022/09/20 14:37:53;;;;;;;2.03;1.50;;;;;;;17.10;82.85;100801.92;5181304;55;1137202;-73
2022/09/20 14:43:03;;;;;;;8.47;7.73;;;;;;;17.21;82.98;100809.20;5205309;56;1137062;-73
2022/09/20 14:48:20;;;;;;;0.63;0.63;;;;;;;17.29;77.54;100811.58;5133640;57;1136998;-73
2022/09/20 14:53:28;;;;;;;2.00;1.90;;;;;;;17.26;73.90;100819.92;5154713;57;1136918;-73
2022/09/20 14:58:54;;;;;;;1.47;0.60;;;;;;;17.16;74.55;100822.67;5163724;56;1137229;-73
2022/09/20 15:04:08;;;;;;;3.00;0.53;;;;;;;17.05;72.62;100824.25;5163712;56;1136869;-74
2022/09/20 15:09:15;;;;;;;1.20;1.10;;;;;;;16.89;73.45;100834.28;5163624;56;1139123;-73
2022/09/20 15:14:21;;;;;;;1.37;1.27;;;;;;;16.83;76.35;100837.05;5163946;56;1138957;-73
2022/09/20 15:19:29;;;;;;;2.97;2.77;;;;;;;16.82;75.52;100833.20;5164029;56;1139207;-73
2022/09/20 15:24:35;;;;;;;3.23;2.93;;;;;;;16.79;76.18;100845.05;5146254;56;1138934;-73
2022/09/20 15:29:41;;;;;;;29.80;22.33;;;;;;;16.82;74.77;100846.06;5222875;55;1139033;-73
2022/09/20 15:34:47;;;;;;;57.00;37.00;;;;;;;16.76;74.61;100845.84;5228497;55;1143060;-73
2022/09/20 15:39:52;;;;;;;102.27;61.80;;;;;;;16.77;76.12;100849.70;5160421;56;1143124;-73
2022/09/20 15:44:58;;;;;;;13.70;8.10;;;;;;;16.70;75.15;100854.44;5094458;57;1145243;-73
2022/09/20 15:50:07;;;;;;;7.37;5.90;;;;;;;16.60;73.69;100866.50;5228151;56;1141308;-73
2022/09/20 15:55:12;;;;;;;5.43;4.83;;;;;;;16.35;75.93;100880.52;5228190;56;1139069;-73
2022/09/20 16:00:18;;;;;;;9.37;6.43;;;;;;;16.10;76.16;100880.70;5228307;56;1139013;-74
2022/09/20 16:05:25;;;;;;;2.03;1.50;;;;;;;15.91;76.24;100880.25;5235539;56;1139008;-73
2022/09/20 16:10:31;;;;;;;3.20;1.90;;;;;;;15.74;77.30;100894.33;5242128;56;1139308;-73
2022/09/20 16:15:37;;;;;;;7.67;2.33;;;;;;;15.61;78.37;100899.97;5242178;56;1139241;-73
2022/09/20 16:20:42;;;;;;;3.70;2.67;;;;;;;15.49;77.95;100900.58;5172866;56;1139107;-73
2022/09/20 16:25:50;;;;;;;8.10;4.57;;;;;;;15.42;78.62;100905.30;5155760;57;1139184;-73
2022/09/20 16:31:00;;;;;;;6.47;3.97;;;;;;;15.27;78.34;100905.38;5180772;56;1139056;-72
2022/09/20 16:36:06;;;;;;;13.40;6.20;;;;;;;15.12;78.69;100915.59;5194060;56;1139189;-73
2022/09/20 16:41:13;;;;;;;10.77;4.97;;;;;;;14.98;79.27;100918.63;5134179;56;1141390;-73
2022/09/20 16:46:27;;;;;;;14.93;8.33;;;;;;;14.88;79.53;100924.44;5220943;56;1141070;-72
2022/09/20 16:51:34;;;;;;;13.48;6.70;;;;;;;14.74;79.94;100931.83;5234712;55;1141254;-73
2022/09/20 16:56:44;;;;;;;15.53;7.40;;;;;;;14.69;80.71;100938.05;5240802;56;1141071;-73
2022/09/20 17:01:51;;;;;;;11.03;6.90;;;;;;;14.64;81.05;100942.95;5241385;56;1141113;-73
2022/09/20 17:06:57;;;;;;;15.60;6.93;;;;;;;14.61;81.60;100945.03;5217758;56;1141184;-73
2022/09/20 17:12:05;;;;;;;13.20;5.90;;;;;;;14.51;81.59;100954.33;5227112;56;1141297;-74
2022/09/20 17:17:11;;;;;;;12.80;8.70;;;;;;;14.42;81.92;100963.09;5177011;56;1141401;-73
2022/09/20 17:22:17;;;;;;;12.43;7.90;;;;;;;14.38;82.27;100966.95;5093348;57;1140588;-73
2022/09/20 17:27:23;;;;;;;5.90;3.97;;;;;;;14.30;82.63;100968.95;5102880;57;1141190;-73
2022/09/20 17:32:28;;;;;;;7.00;3.83;;;;;;;14.17;82.68;100984.28;5161813;56;1139209;-73
2022/09/20 17:37:34;;;;;;;19.97;7.80;;;;;;;14.13;83.18;100988.66;5171271;55;1139275;-73
2022/09/20 17:42:42;;;;;;;25.30;8.87;;;;;;;14.13;83.63;100992.16;5186027;55;1141095;-73
2022/09/20 17:47:47;;;;;;;16.70;7.30;;;;;;;14.11;83.59;101001.23;5193482;55;1140960;-73
2022/09/20 17:52:53;;;;;;;17.27;8.57;;;;;;;14.05;83.83;100994.13;5202147;56;1141527;-73
2022/09/20 17:57:58;;;;;;;30.03;11.60;;;;;;;13.97;83.87;101005.06;5227938;56;1140946;-73
2022/09/20 18:03:04;;;;;;;30.40;12.00;;;;;;;13.87;84.40;101012.14;5186582;56;1143141;-73
2022/09/20 18:08:10;;;;;;;24.13;12.30;;;;;;;13.81;84.44;101021.45;5146971;56;1141150;-69
2022/09/20 18:13:16;;;;;;;27.77;13.63;;;;;;;13.68;84.32;101024.78;5176471;56;1141098;-64
2022/09/20 18:18:24;;;;;;;19.23;10.83;;;;;;;13.67;85.24;101033.23;5184064;56;1141495;-71
2022/09/20 18:23:30;;;;;;;27.97;13.67;;;;;;;13.75;85.63;101036.58;5108942;57;1141129;-66
2022/09/20 18:28:36;;;;;;;22.47;12.37;;;;;;;13.71;85.56;101046.64;5152281;56;1141055;-65
2022/09/20 18:33:42;;;;;;;37.37;17.43;;;;;;;13.60;85.57;101054.63;5185483;56;1141372;-69
2022/09/20 18:38:53;;;;;;;28.90;15.55;;;;;;;13.48;85.60;101065.42;5105750;56;1141202;-70
2022/09/20 18:43:56;;;;;;;36.97;16.77;;;;;;;13.43;86.25;101075.59;5064368;57;1141036;-69
2022/09/20 18:49:03;;;;;;;36.50;17.20;;;;;;;13.35;86.12;101078.86;5121487;57;1141306;-64
2022/09/20 18:54:11;;;;;;;19.83;9.40;;;;;;;13.17;85.88;101087.80;5125512;57;1141560;-64
2022/09/20 18:59:27;;;;;;;19.97;8.60;;;;;;;13.02;86.07;101089.83;5095651;57;1138978;-69
2022/09/20 19:04:56;;;;;;;28.27;12.80;;;;;;;13.03;86.92;101094.66;5012273;57;1138975;-67
2022/09/20 19:10:36;;;;;;;14.37;7.40;;;;;;;13.11;87.67;101094.07;5072646;58;21634;-64
2022/09/20 19:16:05;;;;;;;19.67;7.97;;;;;;;12.97;86.68;101096.48;5020642;58;21823;-64
2022/09/20 19:21:58;;;;;;;13.40;7.40;;;;;;;12.88;87.39;101102.02;4913568;60;21133;-70
2022/09/20 19:27:05;;;;;;;31.43;13.37;;;;;;;12.77;87.35;101106.47;5084914;58;21213;-70
2022/09/20 19:32:16;;;;;;;37.03;16.53;;;;;;;12.53;87.52;101115.81;5084598;58;21217;-73
2022/09/20 19:37:44;;;;;;;36.70;17.23;;;;;;;12.32;87.85;101121.81;5060124;58;21236;-73
2022/09/20 19:43:07;;;;;;;44.63;20.60;;;;;;;12.42;89.03;101125.92;4977997;58;1136881;-73
2022/09/20 19:48:38;;;;;;;38.02;19.65;;;;;;;12.48;88.93;101125.48;4973947;58;1141175;-73
2022/09/20 19:53:44;;;;;;;36.67;18.30;;;;;;;12.32;88.47;101137.72;5023273;58;1143144;-73
2022/09/20 19:58:52;;;;;;;39.65;20.57;;;;;;;12.08;88.47;101140.86;5163042;56;1143219;-73
2022/09/20 20:03:58;;;;;;;28.80;13.63;;;;;;;12.00;89.44;101143.72;5133898;56;1143244;-73
2022/09/20 20:09:17;;;;;;;31.17;13.93;;;;;;;12.06;90.02;101144.12;5135833;56;1143201;-73
2022/09/20 20:14:52;;;;;;;28.67;15.43;;;;;;;12.15;90.12;101151.39;5079728;57;1143175;-73
2022/09/20 20:20:21;;;;;;;37.87;18.17;;;;;;;12.14;90.03;101149.70;5079677;57;1143146;-73
2022/09/20 20:25:47;;;;;;;36.38;17.77;;;;;;;12.18;90.47;101153.82;5047551;57;1143353;-73
2022/09/20 20:30:53;;;;;;;36.57;17.23;;;;;;;12.13;89.97;101152.45;5079711;57;1143119;-73
2022/09/20 20:36:01;;;;;;;33.57;18.43;;;;;;;11.93;89.56;101168.02;5061484;57;1143451;-73
2022/09/20 20:41:17;;;;;;;28.87;14.27;;;;;;;11.63;89.41;101170.20;5079497;57;1143167;-72
2022/09/20 20:46:24;;;;;;;26.87;12.00;;;;;;;11.52;90.26;101176.27;5048438;57;1143490;-73
2022/09/20 20:51:36;;;;;;;29.60;12.63;;;;;;;11.40;90.52;101181.12;5074120;57;1143513;-73
2022/09/20 20:56:37;;;;;;;25.57;12.13;;;;;;;11.45;91.56;101180.33;5079049;57;1143180;-72
2022/09/20 21:01:49;;;;;;;31.50;13.47;;;;;;;11.55;91.90;101185.81;5095315;57;1143224;-73
2022/09/20 21:06:50;;;;;;;21.13;11.80;;;;;;;11.53;91.55;101191.69;5079954;56;1143422;-73
2022/09/20 21:11:56;;;;;;;24.77;11.17;;;;;;;11.41;91.62;101187.27;5241885;56;1143175;-73
2022/09/20 21:17:03;;;;;;;20.17;11.53;;;;;;;11.31;91.68;101191.49;5242105;56;1143226;-72
2022/09/20 21:22:09;;;;;;;15.37;8.73;;;;;;;11.29;92.46;101192.95;5210647;56;1143192;-73
2022/09/20 21:27:15;;;;;;;15.90;8.73;;;;;;;11.34;92.80;101191.28;5241826;56;1141340;-73
2022/09/20 21:32:21;;;;;;;22.13;9.73;;;;;;;11.44;92.83;101195.00;5241905;56;1139049;-72
2022/09/20 21:37:27;;;;;;;19.33;9.13;;;;;;;11.49;92.89;101208.75;5222558;56;1139039;-73
2022/09/20 21:42:32;;;;;;;17.60;9.07;;;;;;;11.38;91.96;101217.93;5242107;56;1139018;-73
2022/09/20 21:47:38;;;;;;;15.45;8.88;;;;;;;11.13;91.80;101226.27;5179661;56;1139213;-73
2022/09/20 21:52:47;;;;;;;17.20;8.03;;;;;;;10.93;92.61;101231.58;5202701;56;1139362;-72
2022/09/20 21:57:53;;;;;;;12.13;7.20;;;;;;;10.97;93.74;101229.58;5241870;56;1139144;-73
2022/09/20 22:02:59;;;;;;;11.83;7.13;;;;;;;11.10;94.11;101223.81;5242245;56;1139151;-73
2022/09/20 22:08:04;;;;;;;15.17;8.37;;;;;;;11.08;93.23;101228.84;5241909;56;1139048;-73
2022/09/20 22:13:10;;;;;;;14.77;7.47;;;;;;;11.09;94.21;101237.16;5211191;56;1139121;-73
2022/09/20 22:18:16;;;;;;;14.03;7.03;;;;;;;11.08;94.17;101234.98;5242119;56;1138989;-72
2022/09/20 22:23:21;;;;;;;17.97;7.23;;;;;;;10.93;93.99;101238.67;5242054;56;1139095;-72
2022/09/20 22:28:27;;;;;;;13.47;6.73;;;;;;;10.91;95.12;101232.16;5242287;56;1138931;-73
2022/09/20 22:33:33;;;;;;;14.07;6.60;;;;;;;10.93;95.41;101234.70;5241936;56;1139085;-73
2022/09/20 22:38:38;;;;;;;8.87;5.70;;;;;;;10.96;95.17;101233.66;5195146;56;1139157;-73
2022/09/20 22:43:44;;;;;;;10.87;5.97;;;;;;;10.86;95.16;101232.08;5183425;56;1136877;-73
2022/09/20 22:48:50;;;;;;;12.13;4.67;;;;;;;10.80;95.86;101230.72;5324736;55;1138984;-72
2022/09/20 22:53:56;;;;;;;7.37;4.17;;;;;;;10.76;96.10;101231.02;5269168;55;1139063;-72
2022/09/20 22:59:14;;;;;;;6.33;4.07;;;;;;;10.64;96.52;101222.11;5242860;56;1137099;-73
2022/09/20 23:04:22;;;;;;;7.17;4.57;;;;;;;10.64;97.51;101227.88;5242710;56;1138975;-73
2022/09/20 23:09:28;;;;;;;7.70;4.43;;;;;;;10.61;97.75;101230.24;5223658;56;1138917;-73
2022/09/20 23:14:33;;;;;;;8.55;4.72;;;;;;;10.64;98.23;101231.84;5129404;56;1138848;-73
2022/09/20 23:19:39;;;;;;;13.20;6.37;;;;;;;10.77;98.96;101230.06;5129526;56;1138993;-73
2022/09/20 23:24:46;;;;;;;10.37;6.53;;;;;;;10.77;99.15;101234.89;5129224;56;1141072;-72
2022/09/20 23:29:51;;;;;;;5.77;4.00;;;;;;;10.71;99.60;101230.47;5129135;56;1141024;-73
2022/09/20 23:34:57;;;;;;;5.42;3.95;;;;;;;10.70;100.00;101238.88;5131121;56;1139001;-72
2022/09/20 23:40:02;;;;;;;8.47;3.80;;;;;;;10.71;100.00;101237.92;5008875;58;1141319;-72
2022/09/20 23:45:10;;;;;;;7.63;4.17;;;;;;;10.73;99.95;101240.00;4962289;58;1141125;-72
2022/09/20 23:50:17;;;;;;;7.33;3.83;;;;;;;10.74;100.00;101239.53;4981510;58;1138630;-72
2022/09/20 23:55:22;;;;;;;4.93;3.60;;;;;;;10.75;100.00;101247.36;4980669;59;1141364;-72
